Weather observations for the past three days for
Bemidji
Metric (Imperial)
Date Time (cdt) Wind (kph) Vis. (km) Weather Sky Cond. Temperature (ºC) Relative Humidity Wind Chill (°C) Heat Index (°C) Pressure Precipitation (cm)
Air Dwpt 6 hour altimeter (cm) sea level (mb) 1 hr 3 hr 6 hr
Max. Min.
09 17:15 N 22 16.09 Overcast BKN065 OVC080 9.5 -5 36% 7 75.92 0.0
09 16:55 N 26 G 39 16.09 Overcast BKN065 OVC075 10.1 -4.7 35% 75.92 0.0
09 16:35 N 26 G 46 16.09 Overcast OVC065 10.6 -4.5 35% 75.9 0.0
09 16:15 NW 37 G 48 16.09 Overcast and Breezy OVC065 11.8 -4.5 32% 75.9 0.0
09 15:55 NW 31 G 44 16.09 Overcast BKN065 OVC075 10 -5 35% 7 75.9 0.0
09 15:35 NW 37 G 43 16.09 Overcast and Breezy OVC065 11.6 -4.7 32% 75.87 0.0
09 15:15 NW 39 G 54 16.09 Overcast and Breezy OVC065 11.8 -4.2 33% 75.87 0.0
09 14:55 NW 33 G 44 16.09 Mostly Cloudy and Breezy BKN055 12.2 -4.3 32% 75.84 0.0
09 14:35 NW 33 G 50 16.09 Mostly Cloudy and Breezy BKN055 11.6 -4.5 32% 75.84 0.0
09 14:15 NW 30 G 50 16.09 Mostly Cloudy BKN055 11.3 -4.6 33% 75.84 0.0
09 13:55 NW 33 G 48 16.09 Mostly Cloudy and Breezy BKN055 BKN065 9.8 -4.8 36% 6 75.82 0.0
09 13:35 NW 30 G 39 16.09 Mostly Cloudy BKN055 BKN065 10.3 -4.1 36% 75.79 0.0
09 13:15 NW 35 G 44 16.09 Mostly Cloudy and Breezy BKN060 BKN070 10.4 -4 36% 75.79 0.0
09 12:55 NW 33 G 43 16.09 Mostly Cloudy and Breezy BKN060 BKN070 9.9 -4.3 10.7 3.2 37% 7 75.79 0.0
09 12:35 NW 31 G 43 16.09 Partly Cloudy SCT050 SCT065 10.3 -4.4 36% 75.77 0.0
09 12:15 NW 26 G 39 16.09 Mostly Cloudy BKN050 BKN065 10.2 -4 37% 75.79 0.0
09 11:55 NW 31 G 41 16.09 Partly Cloudy SCT050 9.4 -4.5 38% 6 75.79 0.0
09 11:35 N 26 G 44 16.09 Partly Cloudy SCT050 9.2 -4.5 38% 6 75.77 0.0
09 11:15 NW 28 G 43 16.09 Fair CLR 8.9 -4.4 39% 6 75.77 0.0
09 10:55 N 28 G 44 16.09 Fair CLR 8.2 -4.3 41% 5 75.74 0.0
09 10:35 NW 26 G 44 16.09 Fair CLR 7.3 -4.7 43% 4 75.74 0.0
09 10:15 N 28 G 44 16.09 Fair CLR 6.8 -5 43% 3 75.74 0.0
09 09:55 N 28 G 46 16.09 Partly Cloudy SCT046 6.5 -5.1 44% 3 75.72 0.0
09 09:35 NW 33 G 43 16.09 Partly Cloudy and Breezy SCT046 6.5 -4.6 45% 2 75.72 0.0
09 09:15 NW 33 G 43 16.09 Partly Cloudy and Breezy SCT044 5.8 -4.3 49% 1 75.69 0.0
09 08:55 NW 26 G 39 16.09 Fair CLR 5.4 -3.7 52% 1 75.69 0.0
09 08:35 NW 20 G 35 16.09 Fair CLR 4.8 -3.6 55% 1 75.67 0.0
09 08:15 N 26 G 33 16.09 Fair CLR 4.2 -3.6 57% -0 75.64 0.0
09 07:55 NW 19 G 30 16.09 Fair CLR 4 -3.7 58% 0 75.64 0.0
09 07:35 NW 20 G 28 16.09 Fair CLR 3.8 -4.1 57% -0 75.59 0.0
09 07:15 NW 20 G 30 16.09 Fair CLR 3.5 -4.5 56% -0 75.57 0.0
09 06:55 NW 15 16.09 Fair CLR 3.2 -4.5 5.9 1.7 57% -0 75.54 0.0
09 06:35 NW 17 16.09 Fair CLR 2.7 -4.6 59% -1 75.51 0.0
09 06:15 NW 13 16.09 Fair CLR 1.9 -4.5 63% -1 75.49 0.0
09 05:55 N 11 16.09 Partly Cloudy SCT090 3.4 -5.2 54% 1 75.46 0.0
09 05:35 N 13 16.09 Mostly Cloudy BKN090 4 -4.7 53% 1 75.44 0.0
09 05:15 N 19 G 26 16.09 Overcast SCT080 OVC090 5 -4.2 52% 2 75.44 0.0
09 04:55 N 24 G 31 16.09 Overcast SCT070 SCT080 OVC090 5.1 -3.7 53% 1 75.41 0.0
09 04:35 N 19 G 33 16.09 Overcast SCT070 BKN080 OVC090 5.5 -3.1 54% 2 75.39 0.0
09 04:15 N 15 16.09 Overcast SCT070 OVC090 5 0.5 73% 2 75.36 0.0
09 03:55 NW 15 16.09 Overcast SCT070 OVC090 4.7 2.3 85% 2 75.34 0.0
09 03:35 NW 11 16.09 Overcast SCT070 OVC080 5 2.7 85% 3 75.31 0.0
09 03:15 W 11 16.09 Overcast SCT070 OVC080 5.2 2.9 85% 3 75.29 0.0
09 02:55 W 13 16.09 Overcast BKN070 OVC080 5.2 3.1 86% 3 75.29 0.0
09 02:35 W 13 16.09 Overcast OVC060 5.3 3.5 88% 3 75.29 0.0
09 02:15 W 9 16.09 Overcast OVC060 5.5 3.5 87% 4 75.29 0.0
09 01:55 W 9 16.09 Overcast OVC050 5.6 3.2 85% 4 75.29 0.0
09 01:35 SW 6 16.09 Light Rain OVC050 5.9 2.7 80% 75.29 0.0
09 01:15 W 7 16.09 Overcast OVC047 5.7 2.6 81% 4 75.29 0.0
09 00:55 NW 9 16.09 Light Rain SCT037 OVC047 5.7 2.4 14.7 5.7 80% 4 75.29 0.0
09 00:35 NW 9 16.09 Light Rain BKN037 BKN047 OVC055 5.8 2.6 80% 4 75.29 0.0
09 00:15 NW 17 16.09 Light Rain SCT035 BKN041 OVC055 6.3 2.7 78% 3 75.31 0.0
08 23:55 NW 28 16.09 Light Rain BKN033 BKN043 OVC050 7.1 2.1 71% 3 75.34 0.0
08 23:35 NW 20 16.09 Overcast SCT050 OVC060 8.5 0 55% 6 75.31 0.0
08 23:15 W 20 16.09 Light Rain SCT039 SCT046 OVC050 8.5 1 60% 6 75.31 0.0
08 22:55 NW 30 G 35 16.09 Light Rain SCT037 BKN060 OVC065 9.1 0.7 56% 6 75.34 0.0
08 22:35 N 22 16.09 Overcast SCT060 OVC070 10 -3.4 39% 7 75.29 0.0
08 22:15 N 11 16.09 Overcast BKN080 BKN090 OVC110 10.1 -3.9 37% 75.23 0.0
08 21:55 N 7 16.09 Partly Cloudy SCT110 9.9 -3.7 39% 9 75.18 0.0
08 21:35 N 6 16.09 Fair CLR 9.8 -4 38% 75.18 0.0
08 21:15 N 9 16.09 Fair CLR 8.1 -4.2 42% 7 75.16 0.0
08 20:55 Calm 16.09 Fair CLR 10.1 -3.9 37% 75.16 0.0
08 20:35 NW 6 16.09 Fair CLR 9.7 -4 38% 75.16 0.0
08 20:15 NW 15 16.09 Fair CLR 11.3 -4 34% 75.18 0.0
08 19:55 NW 19 G 28 16.09 Fair CLR 13.2 -4.2 30% 75.18 0.0
08 19:35 NW 15 G 30 16.09 Partly Cloudy SCT090 13.8 -4.2 29% 75.21 0.0
08 19:15 NW 26 G 37 16.09 Partly Cloudy SCT090 14.5 -4.3 27% 75.21 0.0
08 18:55 NW 22 G 28 16.09 Partly Cloudy SCT090 14.6 -3.8 17.7 14.3 28% 75.21 0.0
08 18:35 NW 31 G 41 16.09 Fair CLR 15 -3.5 28% 75.21 0.0
08 18:15 NW 26 G 44 16.09 Partly Cloudy SCT075 SCT120 15 -3.1 29% 75.23 0.0
08 17:55 W 30 G 43 16.09 Partly Cloudy SCT075 15.4 -3.5 27% 75.23 0.0
08 17:35 NW 33 G 43 16.09 Fair and Breezy CLR 15.5 -4.8 25% 75.23 0.0
08 17:15 W 39 G 52 16.09 Fair and Breezy CLR 15.5 -4.4 25% 75.23 0.0
08 16:55 NW 37 G 54 16.09 Fair and Breezy CLR 16 -4.3 25% 75.21 0.0
08 16:35 NW 30 G 50 16.09 Partly Cloudy SCT080 16.4 -3.8 25% 75.18 0.0
08 16:15 W 39 G 56 16.09 Partly Cloudy and Breezy SCT080 16.9 -3.9 24% 75.18 0.0
08 15:55 W 37 G 46 16.09 Partly Cloudy and Breezy SCT080 16.9 -3.4 25% 75.18 0.0
08 15:35 W 26 G 46 16.09 Partly Cloudy SCT080 16.9 -4 24% 75.16 0.0
08 15:15 W 35 G 50 16.09 Partly Cloudy and Breezy SCT085 16.9 -2.2 27% 75.18 0.0
08 14:55 W 26 G 52 16.09 Mostly Cloudy BKN085 16.6 -2.2 28% 75.16 0.0
08 14:35 W 31 G 52 16.09 Partly Cloudy SCT085 17.2 -1.6 28% 75.18 0.0
08 14:15 W 35 G 52 16.09 Overcast and Breezy OVC085 16 -5 23% 75.18 0.0
08 13:55 W 30 G 43 16.09 Overcast OVC095 16.1 -5.6 22% 75.18 0.0
08 13:35 W 33 G 44 16.09 Overcast and Breezy OVC095 15.9 -5.8 22% 75.21 0.0
08 13:15 W 31 G 39 16.09 Overcast OVC095 15.9 -6.7 21% 75.21 0.0
08 12:55 W 33 G 41 16.09 Mostly Cloudy and Breezy BKN095 BKN120 15.9 -6.6 17 2.1 21% 75.23 0.0
08 12:35 W 24 16.09 Overcast BKN095 OVC120 16.5 -6.1 21% 75.26 0.0
08 12:15 W 26 G 37 16.09 Mostly Cloudy BKN095 16.3 -5.9 21% 75.29 0.0
08 11:55 W 26 G 37 16.09 Partly Cloudy SCT095 SCT110 15.7 -6.2 22% 75.29 0.0
08 11:35 W 19 G 35 16.09 Partly Cloudy SCT110 15.6 -6.3 22% 75.31 0.0
08 11:15 W 26 G 43 16.09 Partly Cloudy SCT120 15.4 -6.4 22% 75.34 0.0
08 10:55 W 22 G 33 16.09 Mostly Cloudy BKN120 15.1 -5.8 23% 75.34 0.0
08 10:35 SW 15 G 28 16.09 Partly Cloudy SCT120 14.5 -5.4 25% 75.36 0.0
08 10:15 W 15 16.09 Mostly Cloudy BKN120 13.8 -4 29% 75.39 0.0
08 09:55 SW 13 16.09 Partly Cloudy SCT110 12.2 -4.2 32% 75.41 0.0
08 09:35 SW 13 16.09 Partly Cloudy SCT120 10.3 -4.1 36% 75.41 0.0
08 09:15 SW 11 16.09 Fair CLR 9.1 -4 40% 8 75.41 0.0
08 08:55 SW 11 16.09 Partly Cloudy SCT085 SCT100 8.3 -4.5 40% 7 75.46 0.0
08 08:35 SW 9 16.09 Partly Cloudy SCT100 8 -4.2 42% 7 75.46 0.0
08 08:15 SW 7 16.09 Mostly Cloudy BKN090 6.3 -3.7 49% 5 75.49 0.0
08 07:55 SW 11 16.09 Mostly Cloudy BKN090 BKN110 5.5 -4.4 49% 3 75.49 0.0
08 07:35 SW 11 16.09 Mostly Cloudy SCT080 BKN090 BKN110 3.9 -4.9 53% 1 75.49 0.0
08 07:15 SW 7 16.09 Partly Cloudy SCT090 2.9 -4.4 59% 1 75.49 0.0
08 06:55 SW 6 16.09 Partly Cloudy SCT090 1.7 -3.7 2 -1.8 68% 75.49 0.0
08 06:35 Calm 16.09 Fair CLR 2 -4.9 61% 75.49 0.0
08 06:15 S 6 16.09 Partly Cloudy SCT100 SCT120 1.5 -4.7 64% 75.46 0.0
08 05:55 SW 6 16.09 Mostly Cloudy BKN100 1.5 -4.8 63% 75.49 0.0
08 05:35 SW 9 16.09 Fair CLR 1.1 -5.4 62% -1 75.49 0.0
08 05:15 SW 7 16.09 Fair CLR 1.1 -5.6 61% -1 75.49 0.0
08 04:55 SW 9 16.09 Fair CLR 1.5 -5.9 58% -1 75.54 0.0
08 04:35 SW 9 16.09 Fair CLR 1 -5.5 62% -2 75.54 0.0
08 04:15 SW 9 16.09 Fair CLR 1 -5.2 64% -2 75.54 0.0
08 03:55 SW 9 16.09 Fair CLR 1 -6.2 59% -2 75.57 0.0
08 03:35 SW 7 16.09 Fair CLR 0.7 -5.4 64% -1 75.57 0.0
08 03:15 SW 7 16.09 Fair CLR -1.3 -5.8 72% -4 75.57 0.0
08 02:55 SW 7 16.09 Fair CLR 0.7 -4.9 67% -1 75.57 0.0
08 02:35 SW 7 16.09 Fair CLR 1 -5 65% -1 75.57 0.0
08 02:15 SW 7 16.09 Fair CLR 1.5 -5.7 59% -0 75.59 0.0
08 01:55 SW 9 16.09 Fair CLR 1.2 -5.5 61% -1 75.59 0.0
08 01:35 SW 9 16.09 Fair CLR 0.1 -5.7 65% -3 75.59 0.0
08 01:15 SW 6 16.09 Fair CLR 0.1 -5.4 67% 75.59 0.0
08 00:55 S 6 16.09 Fair CLR -0.7 -5.4 10.9 -1.5 71% 75.59 0.0
08 00:35 Calm 16.09 Fair CLR -1.2 -6.7 67% 75.62 0.0
08 00:15 Calm 16.09 Fair CLR -1.4 -6.9 67% 75.64 0.0
07 23:55 Calm 16.09 Fair CLR -1.1 -7.3 63% 75.64 0.0
07 23:35 SW 6 16.09 Fair CLR 0 -7.1 59% 75.67 0.0
07 23:15 Calm 16.09 Fair CLR -1.5 -8.3 60% 75.67 0.0
07 22:55 Calm 16.09 Fair CLR -0.8 -8.2 58% 75.67 0.0
07 22:35 Calm 16.09 Fair CLR 0.7 -6.9 57% 75.67 0.0
07 22:15 Calm 16.09 Fair CLR 3.4 -6.9 47% 75.67 0.0
07 21:55 Calm 16.09 Fair CLR 2.7 -6.4 52% 75.67 0.0
07 21:35 Calm 16.09 Fair CLR 5.1 -7.7 39% 75.67 0.0
07 21:15 Calm 16.09 Fair CLR 3.6 -8.1 42% 75.67 0.0
07 20:55 Calm 16.09 Fair CLR 5.9 -7.8 37% 75.64 0.0
07 20:35 NW 7 16.09 Fair CLR 6.9 -8 34% 6 75.64 0.0
07 20:15 NW 9 16.09 Fair CLR 8.3 -7.6 32% 7 75.62 0.0
07 19:55 NW 11 16.09 Fair CLR 9.3 -7.5 30% 8 75.62 0.0
07 19:35 N 15 16.09 Fair CLR 10.1 -7.9 28% 75.62 0.0
07 19:15 NW 17 16.09 Fair CLR 10.6 -7.5 28% 75.62 0.0
07 18:55 NW 17 16.09 Fair CLR 10.7 -7.5 12.4 9.1 27% 75.62 0.0
07 18:35 NW 20 G 31 16.09 Fair CLR 11.4 -7.1 27% 75.62 0.0
07 18:15 NW 20 G 30 16.09 Partly Cloudy SCT080 11.2 -7.4 27% 75.62 0.0
07 17:55 NW 26 16.09 Partly Cloudy SCT080 11.7 -7.2 26% 75.62 0.0
07 17:35 NW 19 G 31 16.09 Partly Cloudy SCT080 11.2 -7.4 27% 75.62 0.0
07 17:15 NW 31 G 43 16.09 Partly Cloudy SCT080 11.9 -7.1 26% 75.64 0.0
07 16:55 NW 22 G 37 16.09 Mostly Cloudy BKN080 11.8 -6.9 27% 75.64 0.0
07 16:35 W 24 G 43 16.09 Mostly Cloudy BKN080 12.1 -7.1 26% 75.67 0.0
07 16:15 NW 13 G 33 16.09 Mostly Cloudy BKN070 11.7 -6.4 28% 75.67 0.0
07 15:55 W 17 G 35 16.09 Mostly Cloudy BKN070 BKN085 11.2 -6.1 29% 75.67 0.0
07 15:35 NW 19 G 35 16.09 Mostly Cloudy SCT070 BKN080 12.2 -5.8 28% 75.69 0.0
07 15:15 NW 22 G 35 16.09 Mostly Cloudy BKN070 BKN080 11.7 -6.1 28% 75.69 0.0
07 14:55 W 24 G 37 16.09 Mostly Cloudy SCT070 BKN080 11.2 -6.4 29% 75.72 0.0
07 14:35 NW 15 G 41 16.09 Mostly Cloudy BKN070 BKN080 11.3 -5.8 30% 75.69 0.0
07 14:15 NW 15 G 39 16.09 Partly Cloudy SCT070 11.1 -5.4 31% 75.69 0.0
07 13:55 NW 19 G 39 16.09 Mostly Cloudy BKN070 BKN080 9.8 -6.7 31% 8 75.72 0.0
07 13:35 NW 28 G 35 16.09 Overcast OVC070 11.3 -6.1 29% 75.72 0.0
07 13:15 NW 20 G 37 16.09 Mostly Cloudy BKN070 BKN080 9.4 -6.6 32% 7 75.72 0.0
07 12:55 NW 26 G 37 16.09 Mostly Cloudy SCT070 BKN080 10.2 -6 10.2 -5 32% 75.74 0.0
07 12:35 NW 22 G 35 16.09 Mostly Cloudy SCT060 BKN080 9.6 -6.3 32% 7 75.77 0.0
07 12:15 NW 31 G 41 16.09 Mostly Cloudy SCT065 SCT070 BKN080 9.3 -6.6 32% 6 75.77 0.0
07 11:55 NW 20 G 37 16.09 Overcast SCT065 OVC080 8.9 -6 35% 6 75.79 0.0
07 11:35 NW 19 G 37 16.09 Mostly Cloudy BKN080 8.4 -5.6 37% 6 75.79 0.0
07 11:15 NW 19 G 30 16.09 Overcast OVC080 8.3 -5.2 38% 6 75.79 0.0
07 10:55 NW 22 16.09 Overcast OVC080 8 -5.6 38% 5 75.79 0.0
07 10:35 W 17 16.09 Overcast OVC080 7.4 -4.8 42% 5 75.79 0.0
07 10:15 W 19 G 28 16.09 Overcast OVC080 7.1 -4.5 44% 4 75.79 0.0
07 09:55 W 19 16.09 Mostly Cloudy BKN080 6.9 -4.2 45% 4 75.79 0.0
07 09:35 W 22 G 30 16.09 Mostly Cloudy BKN080 5.5 -4.2 50% 2 75.79 0.0
07 09:15 W 13 16.09 Overcast OVC080 4.5 -3.7 56% 2 75.79 0.0
07 08:55 W 13 16.09 Overcast OVC080 3 -3.9 61% 0 75.84 0.0
07 08:35 SW 9 16.09 Overcast OVC080 1.5 -3.6 69% -1 75.84 0.0
07 08:15 Calm 16.09 Overcast SCT070 OVC080 0.1 -4.1 74% 75.84 0.0
07 07:55 Calm 16.09 Mostly Cloudy BKN070 BKN080 -0.8 -3.1 85% 75.84 0.0
07 07:35 Calm 16.09 Overcast OVC070 -2 -3.2 92% 75.87 0.0
07 07:15 Calm 16.09 Mostly Cloudy BKN060 -3.1 -3.6 96% 75.84 0.0
07 06:55 Calm 16.09 Partly Cloudy SCT060 -5.2 -5.9 -0.5 -8.1 95% 75.84 0.0
07 06:35 Calm 16.09 Fair CLR -7 -8.6 89% 75.84 0.0
07 06:15 Calm 16.09 Fair CLR -7.5 -9.2 88% 75.84 0.0
07 05:55 Calm 16.09 Fair CLR -7.7 -8.3 96% 75.84 0.0
07 05:35 Calm 16.09 Fair CLR -5.8 -5.9 99% 75.84 0.0
07 05:15 Calm 16.09 Fair CLR -7 -7.6 96% 75.84 0.0
07 04:55 Calm 16.09 Fair CLR -6.4 -6.9 96% 75.84 0.0
07 04:35 Calm 16.09 Fair CLR -6.9 -7.6 95% 75.84 0.0
07 04:15 Calm 16.09 Fair CLR -5.5 -7.3 87% 75.84 0.0
07 03:55 Calm 16.09 Fair CLR -6.2 -9.3 79% 75.87 0.0
07 03:35 Calm 16.09 Fair CLR -6 -8 86% 75.87 0.0
07 03:15 Calm 16.09 Fair CLR -5.5 -7.5 86% 75.87 0.0
07 02:55 Calm 16.09 Fair CLR -4.8 -6.9 85% 75.84 0.0
07 02:35 Calm 16.09 Fair CLR -5.1 -7.7 82% 75.87 0.0
07 02:15 SW 6 16.09 Fair CLR -3.3 -6.2 81% 75.87 0.0
07 01:55 Calm 16.09 Fair CLR -3 -5.4 84% 75.9 0.0
07 01:35 Calm 16.09 Fair CLR -4.4 -6.7 84% 75.9 0.0
07 01:15 Calm 16.09 Fair CLR -3.7 -6.5 81% 75.92 0.0
07 00:55 SW 9 16.09 Fair CLR -0.6 -5 4.4 -3.4 72% -3 75.9 0.0
07 00:35 SW 9 16.09 Fair CLR -1.6 -5.1 77% -5 75.92 0.0
07 00:15 Calm 16.09 Fair CLR -3.1 -5.8 82% 75.95 0.0
06 23:55 Calm 16.09 Fair CLR -2 -5.1 80% 75.95 0.0
06 23:35 Calm 16.09 Fair CLR -0.9 -5.1 73% 75.97 0.0
06 23:15 Calm 16.09 Fair CLR -1.5 -5.8 73% 75.97 0.0
06 22:55 Calm 16.09 Fair CLR 0.9 -5 65% 76 0.0
06 22:35 Calm 16.09 Partly Cloudy SCT049 SCT065 2.1 -4.9 60% 76 0.0
06 22:15 Calm 16.09 Overcast SCT049 OVC065 2 -4.7 62% 76 0.0
06 21:55 W 6 16.09 Overcast SCT049 OVC065 2.8 -4.6 59% 76.02 0.0
06 21:35 W 7 16.09 Overcast BKN047 BKN055 OVC065 2.7 -4.6 59% 1 76.02 0.0
06 21:15 NW 6 16.09 Overcast OVC055 2.7 -4.7 59% 76 0.0
06 20:55 NW 9 16.09 Overcast BKN055 OVC070 3.2 -4.8 56% 1 76 0.0
06 20:35 W 17 16.09 Overcast SCT048 BKN055 OVC070 3.7 -5 53% 0 76 0.0
06 20:15 W 22 16.09 Overcast BKN046 OVC055 4 -5 52% -0 76 0.0
06 19:55 W 13 16.09 Overcast OVC046 4.1 -4.9 52% 1 76 0.0
06 19:35 W 15 16.09 Overcast BKN044 BKN050 OVC060 4.3 -4.8 52% 1 76 0.0
06 19:15 W 13 16.09 Overcast SCT044 OVC060 4.3 -5 51% 2 76 0.0
06 18:55 W 15 16.09 Overcast OVC060 4.3 -4.7 4.8 3.1 52% 1 76.02 0.0
06 18:35 W 15 16.09 Overcast SCT045 OVC060 4.4 -4.9 51% 1 76.05 0.0
06 18:15 W 17 16.09 Overcast OVC047 4.2 -5 52% 1 76.05 0.0
06 17:55 W 20 16.09 Overcast SCT043 OVC050 4.2 -4.8 52% 0 76.05 0.0
06 17:35 W 15 G 30 16.09 Overcast OVC048 4.1 -5.1 52% 1 76.05 0.0
Date Time (cdt) Wind (kph) Vis. (km) Weather Sky Cond. Air Dwpt Max. Min. Relative Humidity Wind Chill (°C) Heat Index (°C) altimeter (cm) sea level (mb) 1 hr 3 hr 6 hr
6 hour
Temperature (ºC) Pressure Precipitation (cm)